sensor_id;sensor_type;location;lat;lon;timestamp;P1;durP1;ratioP1;P2;durP2;ratioP2
23567;SDS011;11962;50.838;4.430;2023-12-29T00:02:12;11.23;;;2.00;;
23567;SDS011;11962;50.838;4.430;2023-12-29T00:04:38;11.80;;;2.20;;
23567;SDS011;11962;50.838;4.430;2023-12-29T00:07:04;9.77;;;2.10;;
23567;SDS011;11962;50.838;4.430;2023-12-29T00:09:29;11.38;;;2.10;;
23567;SDS011;11962;50.838;4.430;2023-12-29T00:12:03;7.80;;;1.83;;
23567;SDS011;11962;50.838;4.430;2023-12-29T00:14:29;12.88;;;2.20;;
23567;SDS011;11962;50.838;4.430;2023-12-29T00:16:55;8.25;;;1.98;;
23567;SDS011;11962;50.838;4.430;2023-12-29T00:19:22;11.30;;;2.20;;
23567;SDS011;11962;50.838;4.430;2023-12-29T00:21:48;11.45;;;2.40;;
23567;SDS011;11962;50.838;4.430;2023-12-29T00:24:13;12.25;;;1.88;;
23567;SDS011;11962;50.838;4.430;2023-12-29T00:26:39;16.02;;;2.22;;
23567;SDS011;11962;50.838;4.430;2023-12-29T00:29:05;15.50;;;2.42;;
23567;SDS011;11962;50.838;4.430;2023-12-29T00:31:31;11.68;;;2.28;;
23567;SDS011;11962;50.838;4.430;2023-12-29T00:33:57;7.72;;;1.80;;
23567;SDS011;11962;50.838;4.430;2023-12-29T00:36:23;14.25;;;2.08;;
23567;SDS011;11962;50.838;4.430;2023-12-29T00:38:49;14.13;;;2.30;;
23567;SDS011;11962;50.838;4.430;2023-12-29T00:41:15;10.52;;;1.88;;
23567;SDS011;11962;50.838;4.430;2023-12-29T00:43:41;8.45;;;2.05;;
23567;SDS011;11962;50.838;4.430;2023-12-29T00:46:07;12.25;;;2.03;;
23567;SDS011;11962;50.838;4.430;2023-12-29T00:48:36;14.27;;;2.47;;
23567;SDS011;11962;50.838;4.430;2023-12-29T00:51:02;8.85;;;1.90;;
23567;SDS011;11962;50.838;4.430;2023-12-29T00:53:28;11.50;;;2.47;;
23567;SDS011;11962;50.838;4.430;2023-12-29T00:55:56;13.05;;;1.70;;
23567;SDS011;11962;50.838;4.430;2023-12-29T00:58:22;13.20;;;2.25;;
23567;SDS011;11962;50.838;4.430;2023-12-29T01:00:48;11.45;;;2.20;;
23567;SDS011;11962;50.838;4.430;2023-12-29T01:03:14;7.55;;;1.50;;
23567;SDS011;11962;50.838;4.430;2023-12-29T01:05:39;10.98;;;2.00;;
23567;SDS011;11962;50.838;4.430;2023-12-29T01:08:05;9.52;;;1.70;;
23567;SDS011;11962;50.838;4.430;2023-12-29T01:10:31;13.85;;;2.10;;
23567;SDS011;11962;50.838;4.430;2023-12-29T01:12:57;11.15;;;2.33;;
23567;SDS011;11962;50.838;4.430;2023-12-29T01:15:22;10.65;;;2.08;;
23567;SDS011;11962;50.838;4.430;2023-12-29T01:17:48;10.80;;;2.17;;
23567;SDS011;11962;50.838;4.430;2023-12-29T01:20:14;13.38;;;2.55;;
23567;SDS011;11962;50.838;4.430;2023-12-29T01:22:39;11.55;;;2.15;;
23567;SDS011;11962;50.838;4.430;2023-12-29T01:25:05;10.32;;;1.98;;
23567;SDS011;11962;50.838;4.430;2023-12-29T01:27:31;15.48;;;2.22;;
23567;SDS011;11962;50.838;4.430;2023-12-29T01:29:57;20.48;;;1.85;;
23567;SDS011;11962;50.838;4.430;2023-12-29T01:32:23;7.40;;;1.65;;
23567;SDS011;11962;50.838;4.430;2023-12-29T01:34:48;10.05;;;1.70;;
23567;SDS011;11962;50.838;4.430;2023-12-29T01:37:14;10.40;;;1.95;;
23567;SDS011;11962;50.838;4.430;2023-12-29T01:39:40;10.18;;;1.42;;
23567;SDS011;11962;50.838;4.430;2023-12-29T01:42:06;9.20;;;2.22;;
23567;SDS011;11962;50.838;4.430;2023-12-29T01:44:32;11.45;;;2.15;;
23567;SDS011;11962;50.838;4.430;2023-12-29T01:47:00;12.10;;;2.22;;
23567;SDS011;11962;50.838;4.430;2023-12-29T01:49:28;10.95;;;2.10;;
23567;SDS011;11962;50.838;4.430;2023-12-29T01:51:55;12.55;;;2.17;;
23567;SDS011;11962;50.838;4.430;2023-12-29T01:54:24;10.52;;;2.10;;
23567;SDS011;11962;50.838;4.430;2023-12-29T01:56:53;17.02;;;2.08;;
23567;SDS011;11962;50.838;4.430;2023-12-29T01:59:21;6.88;;;1.48;;
23567;SDS011;11962;50.838;4.430;2023-12-29T02:01:49;13.60;;;2.20;;
23567;SDS011;11962;50.838;4.430;2023-12-29T02:04:15;8.77;;;1.80;;
23567;SDS011;11962;50.838;4.430;2023-12-29T02:06:43;10.88;;;2.13;;
23567;SDS011;11962;50.838;4.430;2023-12-29T02:09:09;12.05;;;2.28;;
23567;SDS011;11962;50.838;4.430;2023-12-29T02:11:37;10.68;;;2.00;;
23567;SDS011;11962;50.838;4.430;2023-12-29T02:14:03;8.07;;;1.67;;
23567;SDS011;11962;50.838;4.430;2023-12-29T02:21:59;9.35;;;1.98;;
23567;SDS011;11962;50.838;4.430;2023-12-29T02:24:25;11.20;;;1.88;;
23567;SDS011;11962;50.838;4.430;2023-12-29T02:26:53;9.40;;;1.98;;
23567;SDS011;11962;50.838;4.430;2023-12-29T02:29:34;11.77;;;1.65;;
23567;SDS011;11962;50.838;4.430;2023-12-29T02:32:03;8.20;;;1.73;;
23567;SDS011;11962;50.838;4.430;2023-12-29T02:34:35;11.52;;;1.92;;
23567;SDS011;11962;50.838;4.430;2023-12-29T02:37:03;9.55;;;1.63;;
23567;SDS011;11962;50.838;4.430;2023-12-29T02:39:29;13.25;;;1.92;;
23567;SDS011;11962;50.838;4.430;2023-12-29T02:41:56;12.63;;;2.20;;
23567;SDS011;11962;50.838;4.430;2023-12-29T02:44:22;15.18;;;1.92;;
23567;SDS011;11962;50.838;4.430;2023-12-29T02:46:48;10.45;;;2.00;;
23567;SDS011;11962;50.838;4.430;2023-12-29T02:49:13;12.23;;;1.85;;
23567;SDS011;11962;50.838;4.430;2023-12-29T02:51:39;9.30;;;1.52;;
23567;SDS011;11962;50.838;4.430;2023-12-29T02:54:05;5.88;;;1.77;;
23567;SDS011;11962;50.838;4.430;2023-12-29T02:56:32;10.65;;;2.20;;
23567;SDS011;11962;50.838;4.430;2023-12-29T02:58:58;10.00;;;2.35;;
23567;SDS011;11962;50.838;4.430;2023-12-29T03:01:24;16.30;;;2.38;;
23567;SDS011;11962;50.838;4.430;2023-12-29T03:03:49;11.27;;;1.70;;
23567;SDS011;11962;50.838;4.430;2023-12-29T03:06:15;11.07;;;2.03;;
23567;SDS011;11962;50.838;4.430;2023-12-29T03:08:41;10.85;;;2.40;;
23567;SDS011;11962;50.838;4.430;2023-12-29T03:11:06;12.13;;;2.35;;
23567;SDS011;11962;50.838;4.430;2023-12-29T03:13:32;11.00;;;1.77;;
23567;SDS011;11962;50.838;4.430;2023-12-29T03:15:59;12.35;;;2.08;;
23567;SDS011;11962;50.838;4.430;2023-12-29T03:18:24;11.68;;;2.35;;
23567;SDS011;11962;50.838;4.430;2023-12-29T03:20:50;16.73;;;2.47;;
23567;SDS011;11962;50.838;4.430;2023-12-29T03:23:16;13.82;;;1.80;;
23567;SDS011;11962;50.838;4.430;2023-12-29T03:25:41;12.25;;;1.95;;
23567;SDS011;11962;50.838;4.430;2023-12-29T03:28:07;9.32;;;2.10;;
23567;SDS011;11962;50.838;4.430;2023-12-29T03:30:33;13.60;;;2.17;;
23567;SDS011;11962;50.838;4.430;2023-12-29T03:32:58;12.25;;;2.10;;
23567;SDS011;11962;50.838;4.430;2023-12-29T03:35:24;12.18;;;2.13;;
23567;SDS011;11962;50.838;4.430;2023-12-29T03:37:50;9.07;;;1.70;;
23567;SDS011;11962;50.838;4.430;2023-12-29T03:40:16;13.73;;;2.53;;
23567;SDS011;11962;50.838;4.430;2023-12-29T03:42:41;11.13;;;2.40;;
23567;SDS011;11962;50.838;4.430;2023-12-29T03:45:07;14.25;;;2.22;;
23567;SDS011;11962;50.838;4.430;2023-12-29T03:47:33;11.10;;;2.03;;
23567;SDS011;11962;50.838;4.430;2023-12-29T03:50:00;14.43;;;2.30;;
23567;SDS011;11962;50.838;4.430;2023-12-29T03:52:26;15.48;;;2.10;;
23567;SDS011;11962;50.838;4.430;2023-12-29T03:54:52;13.10;;;2.05;;
23567;SDS011;11962;50.838;4.430;2023-12-29T03:57:17;14.50;;;2.13;;
23567;SDS011;11962;50.838;4.430;2023-12-29T03:59:43;11.38;;;1.92;;
23567;SDS011;11962;50.838;4.430;2023-12-29T04:02:09;11.02;;;2.08;;
23567;SDS011;11962;50.838;4.430;2023-12-29T04:04:38;9.82;;;1.90;;
23567;SDS011;11962;50.838;4.430;2023-12-29T04:07:04;12.02;;;2.17;;
23567;SDS011;11962;50.838;4.430;2023-12-29T04:09:30;9.55;;;1.90;;
23567;SDS011;11962;50.838;4.430;2023-12-29T04:11:56;10.55;;;1.70;;
23567;SDS011;11962;50.838;4.430;2023-12-29T04:14:21;12.13;;;2.25;;
23567;SDS011;11962;50.838;4.430;2023-12-29T04:16:47;11.25;;;2.05;;
23567;SDS011;11962;50.838;4.430;2023-12-29T04:19:13;11.95;;;2.25;;
23567;SDS011;11962;50.838;4.430;2023-12-29T04:21:39;15.65;;;2.40;;
23567;SDS011;11962;50.838;4.430;2023-12-29T04:24:04;13.55;;;2.15;;
23567;SDS011;11962;50.838;4.430;2023-12-29T04:26:35;11.63;;;2.50;;
23567;SDS011;11962;50.838;4.430;2023-12-29T04:29:01;13.23;;;2.03;;
23567;SDS011;11962;50.838;4.430;2023-12-29T04:31:28;14.60;;;2.42;;
23567;SDS011;11962;50.838;4.430;2023-12-29T04:33:53;9.23;;;2.20;;
23567;SDS011;11962;50.838;4.430;2023-12-29T04:36:19;7.32;;;1.70;;
23567;SDS011;11962;50.838;4.430;2023-12-29T04:38:45;13.82;;;2.15;;
23567;SDS011;11962;50.838;4.430;2023-12-29T04:41:14;11.13;;;2.10;;
23567;SDS011;11962;50.838;4.430;2023-12-29T04:43:39;11.60;;;2.40;;
23567;SDS011;11962;50.838;4.430;2023-12-29T04:46:05;8.13;;;2.05;;
23567;SDS011;11962;50.838;4.430;2023-12-29T04:48:31;9.18;;;2.28;;
23567;SDS011;11962;50.838;4.430;2023-12-29T04:50:57;12.25;;;2.08;;
23567;SDS011;11962;50.838;4.430;2023-12-29T04:53:22;11.85;;;2.10;;
23567;SDS011;11962;50.838;4.430;2023-12-29T04:55:48;17.58;;;2.47;;
23567;SDS011;11962;50.838;4.430;2023-12-29T04:58:14;11.48;;;2.08;;
23567;SDS011;11962;50.838;4.430;2023-12-29T05:00:39;10.75;;;1.92;;
23567;SDS011;11962;50.838;4.430;2023-12-29T05:03:05;12.07;;;1.98;;
23567;SDS011;11962;50.838;4.430;2023-12-29T05:05:31;9.82;;;1.80;;
23567;SDS011;11962;50.838;4.430;2023-12-29T05:07:57;16.10;;;2.28;;
23567;SDS011;11962;50.838;4.430;2023-12-29T05:10:22;11.82;;;2.47;;
23567;SDS011;11962;50.838;4.430;2023-12-29T05:12:48;20.15;;;2.55;;
23567;SDS011;11962;50.838;4.430;2023-12-29T05:15:14;12.98;;;2.05;;
23567;SDS011;11962;50.838;4.430;2023-12-29T05:17:39;11.63;;;2.15;;
23567;SDS011;11962;50.838;4.430;2023-12-29T05:20:08;12.93;;;2.25;;
23567;SDS011;11962;50.838;4.430;2023-12-29T05:22:34;11.18;;;2.13;;
23567;SDS011;11962;50.838;4.430;2023-12-29T05:25:00;8.63;;;2.17;;
23567;SDS011;11962;50.838;4.430;2023-12-29T05:27:26;11.65;;;2.15;;
23567;SDS011;11962;50.838;4.430;2023-12-29T05:29:52;9.85;;;1.95;;
23567;SDS011;11962;50.838;4.430;2023-12-29T05:32:18;12.48;;;2.13;;
23567;SDS011;11962;50.838;4.430;2023-12-29T05:34:43;11.05;;;2.10;;
23567;SDS011;11962;50.838;4.430;2023-12-29T05:37:09;11.05;;;2.10;;
23567;SDS011;11962;50.838;4.430;2023-12-29T05:39:35;13.70;;;2.47;;
23567;SDS011;11962;50.838;4.430;2023-12-29T05:42:00;12.60;;;2.10;;
23567;SDS011;11962;50.838;4.430;2023-12-29T05:44:26;12.02;;;2.05;;
23567;SDS011;11962;50.838;4.430;2023-12-29T05:46:52;10.85;;;1.95;;
23567;SDS011;11962;50.838;4.430;2023-12-29T05:49:22;14.43;;;2.95;;
23567;SDS011;11962;50.838;4.430;2023-12-29T05:51:49;12.75;;;2.00;;
23567;SDS011;11962;50.838;4.430;2023-12-29T05:54:15;11.25;;;2.50;;
23567;SDS011;11962;50.838;4.430;2023-12-29T05:56:41;11.10;;;2.33;;
23567;SDS011;11962;50.838;4.430;2023-12-29T05:59:07;14.80;;;2.40;;
23567;SDS011;11962;50.838;4.430;2023-12-29T06:01:32;13.48;;;2.30;;
23567;SDS011;11962;50.838;4.430;2023-12-29T06:03:58;9.98;;;1.90;;
23567;SDS011;11962;50.838;4.430;2023-12-29T06:06:24;9.93;;;2.45;;
23567;SDS011;11962;50.838;4.430;2023-12-29T06:08:49;14.48;;;2.60;;
23567;SDS011;11962;50.838;4.430;2023-12-29T06:11:15;10.25;;;1.90;;
23567;SDS011;11962;50.838;4.430;2023-12-29T06:13:42;11.65;;;2.10;;
23567;SDS011;11962;50.838;4.430;2023-12-29T06:16:07;12.55;;;1.98;;
23567;SDS011;11962;50.838;4.430;2023-12-29T06:18:33;10.48;;;2.10;;
23567;SDS011;11962;50.838;4.430;2023-12-29T06:20:59;12.20;;;2.20;;
23567;SDS011;11962;50.838;4.430;2023-12-29T06:23:27;12.88;;;2.30;;
23567;SDS011;11962;50.838;4.430;2023-12-29T06:25:53;12.52;;;2.75;;
23567;SDS011;11962;50.838;4.430;2023-12-29T06:28:19;11.77;;;1.90;;
23567;SDS011;11962;50.838;4.430;2023-12-29T06:30:45;12.70;;;1.65;;
23567;SDS011;11962;50.838;4.430;2023-12-29T06:33:11;12.38;;;2.38;;
23567;SDS011;11962;50.838;4.430;2023-12-29T06:35:36;16.02;;;2.03;;
23567;SDS011;11962;50.838;4.430;2023-12-29T06:38:04;13.18;;;2.20;;
23567;SDS011;11962;50.838;4.430;2023-12-29T06:40:29;9.07;;;2.17;;
23567;SDS011;11962;50.838;4.430;2023-12-29T06:42:55;11.80;;;2.25;;
23567;SDS011;11962;50.838;4.430;2023-12-29T06:45:21;14.68;;;2.20;;
23567;SDS011;11962;50.838;4.430;2023-12-29T06:47:47;10.60;;;1.73;;
23567;SDS011;11962;50.838;4.430;2023-12-29T06:50:13;8.93;;;1.80;;
23567;SDS011;11962;50.838;4.430;2023-12-29T06:52:39;8.57;;;1.40;;
23567;SDS011;11962;50.838;4.430;2023-12-29T06:55:05;9.18;;;1.55;;
23567;SDS011;11962;50.838;4.430;2023-12-29T06:57:31;10.50;;;1.88;;
23567;SDS011;11962;50.838;4.430;2023-12-29T06:59:57;12.90;;;1.80;;
23567;SDS011;11962;50.838;4.430;2023-12-29T07:02:23;8.73;;;1.73;;
23567;SDS011;11962;50.838;4.430;2023-12-29T07:04:49;11.95;;;1.65;;
23567;SDS011;11962;50.838;4.430;2023-12-29T07:07:14;9.88;;;2.20;;
23567;SDS011;11962;50.838;4.430;2023-12-29T07:09:40;12.50;;;1.60;;
23567;SDS011;11962;50.838;4.430;2023-12-29T07:12:06;9.48;;;2.03;;
23567;SDS011;11962;50.838;4.430;2023-12-29T07:14:32;12.88;;;2.33;;
23567;SDS011;11962;50.838;4.430;2023-12-29T07:16:58;10.75;;;2.20;;
23567;SDS011;11962;50.838;4.430;2023-12-29T07:19:24;10.48;;;1.67;;
23567;SDS011;11962;50.838;4.430;2023-12-29T07:21:52;12.13;;;1.70;;
23567;SDS011;11962;50.838;4.430;2023-12-29T07:24:18;11.15;;;1.80;;
23567;SDS011;11962;50.838;4.430;2023-12-29T07:26:43;10.27;;;2.10;;
23567;SDS011;11962;50.838;4.430;2023-12-29T07:29:09;10.30;;;1.90;;
23567;SDS011;11962;50.838;4.430;2023-12-29T07:31:38;11.18;;;1.83;;
23567;SDS011;11962;50.838;4.430;2023-12-29T07:34:04;8.48;;;2.03;;
23567;SDS011;11962;50.838;4.430;2023-12-29T07:36:30;10.90;;;1.83;;
23567;SDS011;11962;50.838;4.430;2023-12-29T07:38:56;13.88;;;2.28;;
23567;SDS011;11962;50.838;4.430;2023-12-29T07:41:21;9.43;;;2.00;;
23567;SDS011;11962;50.838;4.430;2023-12-29T07:43:47;8.80;;;2.08;;
23567;SDS011;11962;50.838;4.430;2023-12-29T07:46:22;8.48;;;1.60;;
23567;SDS011;11962;50.838;4.430;2023-12-29T07:48:51;9.70;;;2.03;;
23567;SDS011;11962;50.838;4.430;2023-12-29T07:51:18;12.00;;;1.73;;
23567;SDS011;11962;50.838;4.430;2023-12-29T07:53:44;8.50;;;1.70;;
23567;SDS011;11962;50.838;4.430;2023-12-29T07:56:12;9.60;;;1.60;;
23567;SDS011;11962;50.838;4.430;2023-12-29T07:58:39;15.38;;;2.22;;
23567;SDS011;11962;50.838;4.430;2023-12-29T08:01:05;12.90;;;2.15;;
23567;SDS011;11962;50.838;4.430;2023-12-29T08:03:30;10.13;;;1.70;;
23567;SDS011;11962;50.838;4.430;2023-12-29T08:05:56;9.07;;;2.03;;
23567;SDS011;11962;50.838;4.430;2023-12-29T08:08:22;10.23;;;2.05;;
23567;SDS011;11962;50.838;4.430;2023-12-29T08:10:48;13.68;;;2.10;;
23567;SDS011;11962;50.838;4.430;2023-12-29T08:13:13;8.27;;;1.83;;
23567;SDS011;11962;50.838;4.430;2023-12-29T08:15:39;13.00;;;1.98;;
23567;SDS011;11962;50.838;4.430;2023-12-29T08:18:05;7.40;;;1.30;;
23567;SDS011;11962;50.838;4.430;2023-12-29T08:20:31;7.85;;;1.77;;
23567;SDS011;11962;50.838;4.430;2023-12-29T08:22:57;15.25;;;1.92;;
23567;SDS011;11962;50.838;4.430;2023-12-29T08:25:22;11.32;;;2.10;;
23567;SDS011;11962;50.838;4.430;2023-12-29T08:27:48;10.90;;;2.08;;
23567;SDS011;11962;50.838;4.430;2023-12-29T08:30:14;15.10;;;1.85;;
23567;SDS011;11962;50.838;4.430;2023-12-29T08:32:40;9.57;;;1.83;;
23567;SDS011;11962;50.838;4.430;2023-12-29T08:35:05;9.88;;;1.90;;
23567;SDS011;11962;50.838;4.430;2023-12-29T08:37:32;11.30;;;1.63;;
23567;SDS011;11962;50.838;4.430;2023-12-29T08:39:58;12.27;;;2.08;;
23567;SDS011;11962;50.838;4.430;2023-12-29T08:42:27;6.53;;;1.40;;
23567;SDS011;11962;50.838;4.430;2023-12-29T08:44:54;7.60;;;1.17;;
23567;SDS011;11962;50.838;4.430;2023-12-29T08:47:19;13.07;;;1.77;;
23567;SDS011;11962;50.838;4.430;2023-12-29T08:49:45;10.02;;;1.75;;
23567;SDS011;11962;50.838;4.430;2023-12-29T08:52:13;8.55;;;1.38;;
23567;SDS011;11962;50.838;4.430;2023-12-29T08:54:39;11.85;;;1.58;;
23567;SDS011;11962;50.838;4.430;2023-12-29T08:57:05;9.43;;;1.85;;
23567;SDS011;11962;50.838;4.430;2023-12-29T08:59:32;7.65;;;1.63;;
23567;SDS011;11962;50.838;4.430;2023-12-29T09:01:58;10.90;;;1.60;;
23567;SDS011;11962;50.838;4.430;2023-12-29T09:04:24;13.85;;;1.63;;
23567;SDS011;11962;50.838;4.430;2023-12-29T09:06:49;10.80;;;1.73;;
23567;SDS011;11962;50.838;4.430;2023-12-29T09:09:15;9.35;;;1.67;;
23567;SDS011;11962;50.838;4.430;2023-12-29T09:11:44;14.00;;;1.88;;
23567;SDS011;11962;50.838;4.430;2023-12-29T09:14:10;9.88;;;2.13;;
23567;SDS011;11962;50.838;4.430;2023-12-29T09:16:36;11.50;;;1.90;;
23567;SDS011;11962;50.838;4.430;2023-12-29T09:19:02;11.05;;;1.83;;
23567;SDS011;11962;50.838;4.430;2023-12-29T09:21:27;8.98;;;1.83;;
23567;SDS011;11962;50.838;4.430;2023-12-29T09:23:53;12.27;;;1.77;;
23567;SDS011;11962;50.838;4.430;2023-12-29T09:26:19;10.30;;;2.00;;
23567;SDS011;11962;50.838;4.430;2023-12-29T09:28:44;7.95;;;2.00;;
23567;SDS011;11962;50.838;4.430;2023-12-29T09:31:11;12.40;;;1.98;;
23567;SDS011;11962;50.838;4.430;2023-12-29T09:33:37;12.98;;;2.25;;
23567;SDS011;11962;50.838;4.430;2023-12-29T09:36:03;6.35;;;1.63;;
23567;SDS011;11962;50.838;4.430;2023-12-29T09:38:29;8.32;;;1.77;;
23567;SDS011;11962;50.838;4.430;2023-12-29T09:40:58;9.70;;;2.15;;
23567;SDS011;11962;50.838;4.430;2023-12-29T09:43:26;10.85;;;2.03;;
23567;SDS011;11962;50.838;4.430;2023-12-29T09:45:53;13.77;;;1.90;;
23567;SDS011;11962;50.838;4.430;2023-12-29T09:48:20;7.07;;;1.80;;
23567;SDS011;11962;50.838;4.430;2023-12-29T09:50:51;8.32;;;1.50;;
23567;SDS011;11962;50.838;4.430;2023-12-29T09:53:17;9.45;;;2.03;;
23567;SDS011;11962;50.838;4.430;2023-12-29T09:55:46;8.68;;;1.92;;
23567;SDS011;11962;50.838;4.430;2023-12-29T09:58:14;10.90;;;1.95;;
23567;SDS011;11962;50.838;4.430;2023-12-29T10:00:42;7.95;;;1.70;;
23567;SDS011;11962;50.838;4.430;2023-12-29T10:03:08;8.18;;;1.60;;
23567;SDS011;11962;50.838;4.430;2023-12-29T10:05:35;10.23;;;2.08;;
23567;SDS011;11962;50.838;4.430;2023-12-29T10:08:01;8.07;;;2.15;;
23567;SDS011;11962;50.838;4.430;2023-12-29T10:10:28;8.35;;;1.98;;
23567;SDS011;11962;50.838;4.430;2023-12-29T10:12:56;7.57;;;1.85;;
23567;SDS011;11962;50.838;4.430;2023-12-29T10:15:37;8.85;;;1.83;;
23567;SDS011;11962;50.838;4.430;2023-12-29T10:18:22;12.20;;;1.85;;
23567;SDS011;11962;50.838;4.430;2023-12-29T10:21:39;11.18;;;1.90;;
23567;SDS011;11962;50.838;4.430;2023-12-29T10:24:16;8.18;;;1.67;;
23567;SDS011;11962;50.838;4.430;2023-12-29T10:26:44;8.57;;;1.65;;
23567;SDS011;11962;50.838;4.430;2023-12-29T10:29:13;9.00;;;1.58;;
23567;SDS011;11962;50.838;4.430;2023-12-29T10:31:39;5.90;;;1.60;;
23567;SDS011;11962;50.838;4.430;2023-12-29T10:34:21;10.07;;;2.08;;
23567;SDS011;11962;50.838;4.430;2023-12-29T10:36:54;8.80;;;1.73;;
23567;SDS011;11962;50.838;4.430;2023-12-29T10:39:20;7.10;;;1.73;;
23567;SDS011;11962;50.838;4.430;2023-12-29T10:41:46;7.60;;;1.50;;
23567;SDS011;11962;50.838;4.430;2023-12-29T10:44:12;7.78;;;1.42;;
23567;SDS011;11962;50.838;4.430;2023-12-29T10:46:37;11.55;;;1.85;;
23567;SDS011;11962;50.838;4.430;2023-12-29T10:49:13;8.07;;;1.30;;
23567;SDS011;11962;50.838;4.430;2023-12-29T10:51:39;10.40;;;2.10;;
23567;SDS011;11962;50.838;4.430;2023-12-29T10:54:05;6.28;;;1.52;;
23567;SDS011;11962;50.838;4.430;2023-12-29T10:56:31;7.03;;;1.42;;
23567;SDS011;11962;50.838;4.430;2023-12-29T10:59:02;7.95;;;2.10;;
23567;SDS011;11962;50.838;4.430;2023-12-29T11:01:29;10.48;;;1.83;;
23567;SDS011;11962;50.838;4.430;2023-12-29T11:04:03;7.30;;;1.90;;
23567;SDS011;11962;50.838;4.430;2023-12-29T11:06:39;11.15;;;1.55;;
23567;SDS011;11962;50.838;4.430;2023-12-29T11:09:06;8.65;;;1.83;;
23567;SDS011;11962;50.838;4.430;2023-12-29T11:11:32;7.78;;;1.55;;
23567;SDS011;11962;50.838;4.430;2023-12-29T11:14:01;7.95;;;1.60;;
23567;SDS011;11962;50.838;4.430;2023-12-29T11:16:29;9.18;;;1.85;;
23567;SDS011;11962;50.838;4.430;2023-12-29T11:18:59;7.05;;;1.35;;
23567;SDS011;11962;50.838;4.430;2023-12-29T11:21:26;7.93;;;1.85;;
23567;SDS011;11962;50.838;4.430;2023-12-29T11:23:55;10.73;;;2.22;;
23567;SDS011;11962;50.838;4.430;2023-12-29T11:26:21;4.95;;;1.17;;
23567;SDS011;11962;50.838;4.430;2023-12-29T11:28:47;11.10;;;1.73;;
23567;SDS011;11962;50.838;4.430;2023-12-29T11:31:14;5.07;;;1.40;;
23567;SDS011;11962;50.838;4.430;2023-12-29T11:33:46;8.02;;;1.58;;
23567;SDS011;11962;50.838;4.430;2023-12-29T11:36:16;9.85;;;1.65;;
23567;SDS011;11962;50.838;4.430;2023-12-29T11:38:58;8.27;;;1.40;;
23567;SDS011;11962;50.838;4.430;2023-12-29T11:41:41;7.72;;;1.73;;
23567;SDS011;11962;50.838;4.430;2023-12-29T11:44:16;7.88;;;1.40;;
23567;SDS011;11962;50.838;4.430;2023-12-29T11:46:55;11.38;;;1.90;;
23567;SDS011;11962;50.838;4.430;2023-12-29T11:49:22;8.70;;;1.80;;
23567;SDS011;11962;50.838;4.430;2023-12-29T11:51:49;8.65;;;1.73;;
23567;SDS011;11962;50.838;4.430;2023-12-29T11:54:22;7.82;;;1.48;;
23567;SDS011;11962;50.838;4.430;2023-12-29T11:56:49;4.38;;;1.15;;
23567;SDS011;11962;50.838;4.430;2023-12-29T12:01:48;7.95;;;1.35;;
23567;SDS011;11962;50.838;4.430;2023-12-29T12:04:37;7.10;;;1.40;;
23567;SDS011;11962;50.838;4.430;2023-12-29T12:09:41;4.43;;;1.33;;
23567;SDS011;11962;50.838;4.430;2023-12-29T12:12:08;7.25;;;1.50;;
23567;SDS011;11962;50.838;4.430;2023-12-29T12:14:53;8.30;;;1.48;;
23567;SDS011;11962;50.838;4.430;2023-12-29T12:20:07;5.95;;;1.90;;
23567;SDS011;11962;50.838;4.430;2023-12-29T12:22:34;9.85;;;2.08;;
23567;SDS011;11962;50.838;4.430;2023-12-29T12:25:00;6.78;;;1.63;;
23567;SDS011;11962;50.838;4.430;2023-12-29T12:27:28;6.07;;;1.70;;
23567;SDS011;11962;50.838;4.430;2023-12-29T12:29:57;10.23;;;1.67;;
23567;SDS011;11962;50.838;4.430;2023-12-29T12:32:27;5.30;;;1.50;;
23567;SDS011;11962;50.838;4.430;2023-12-29T12:34:54;6.82;;;1.40;;
23567;SDS011;11962;50.838;4.430;2023-12-29T12:37:23;8.63;;;1.58;;
23567;SDS011;11962;50.838;4.430;2023-12-29T12:39:51;7.63;;;1.35;;
23567;SDS011;11962;50.838;4.430;2023-12-29T12:42:18;10.50;;;1.60;;
23567;SDS011;11962;50.838;4.430;2023-12-29T12:45:03;4.32;;;1.33;;
23567;SDS011;11962;50.838;4.430;2023-12-29T12:47:36;10.63;;;1.60;;
23567;SDS011;11962;50.838;4.430;2023-12-29T12:50:07;8.05;;;1.52;;
23567;SDS011;11962;50.838;4.430;2023-12-29T12:52:35;4.53;;;1.30;;
23567;SDS011;11962;50.838;4.430;2023-12-29T12:55:01;5.45;;;1.20;;
23567;SDS011;11962;50.838;4.430;2023-12-29T12:57:28;4.90;;;1.20;;
23567;SDS011;11962;50.838;4.430;2023-12-29T12:59:54;4.95;;;1.27;;
23567;SDS011;11962;50.838;4.430;2023-12-29T13:02:21;8.77;;;1.15;;
23567;SDS011;11962;50.838;4.430;2023-12-29T13:04:47;5.43;;;1.02;;
23567;SDS011;11962;50.838;4.430;2023-12-29T13:07:16;8.93;;;1.20;;
23567;SDS011;11962;50.838;4.430;2023-12-29T13:09:43;3.58;;;0.80;;
23567;SDS011;11962;50.838;4.430;2023-12-29T13:12:15;3.53;;;0.90;;
23567;SDS011;11962;50.838;4.430;2023-12-29T13:14:42;3.25;;;0.90;;
23567;SDS011;11962;50.838;4.430;2023-12-29T13:17:11;2.45;;;0.85;;
23567;SDS011;11962;50.838;4.430;2023-12-29T13:19:40;6.80;;;1.20;;
23567;SDS011;11962;50.838;4.430;2023-12-29T13:22:12;4.88;;;0.95;;
23567;SDS011;11962;50.838;4.430;2023-12-29T13:24:44;5.10;;;1.20;;
23567;SDS011;11962;50.838;4.430;2023-12-29T13:27:10;3.88;;;1.00;;
23567;SDS011;11962;50.838;4.430;2023-12-29T13:29:40;2.60;;;1.13;;
23567;SDS011;11962;50.838;4.430;2023-12-29T13:32:10;3.80;;;1.00;;
23567;SDS011;11962;50.838;4.430;2023-12-29T13:42:26;5.20;;;1.05;;
23567;SDS011;11962;50.838;4.430;2023-12-29T13:44:56;3.92;;;1.25;;
23567;SDS011;11962;50.838;4.430;2023-12-29T13:47:24;3.78;;;1.40;;
23567;SDS011;11962;50.838;4.430;2023-12-29T13:49:50;4.43;;;1.10;;
23567;SDS011;11962;50.838;4.430;2023-12-29T13:52:17;4.15;;;1.25;;
23567;SDS011;11962;50.838;4.430;2023-12-29T13:54:44;4.93;;;1.15;;
23567;SDS011;11962;50.838;4.430;2023-12-29T13:57:09;2.80;;;0.90;;
23567;SDS011;11962;50.838;4.430;2023-12-29T13:59:36;5.15;;;1.17;;
23567;SDS011;11962;50.838;4.430;2023-12-29T14:05:10;6.10;;;1.13;;
23567;SDS011;11962;50.838;4.430;2023-12-29T14:07:37;4.97;;;1.35;;
23567;SDS011;11962;50.838;4.430;2023-12-29T14:10:08;6.80;;;1.05;;
23567;SDS011;11962;50.838;4.430;2023-12-29T14:12:34;5.55;;;1.52;;
23567;SDS011;11962;50.838;4.430;2023-12-29T14:15:04;6.07;;;1.40;;
23567;SDS011;11962;50.838;4.430;2023-12-29T14:17:30;3.10;;;0.93;;
23567;SDS011;11962;50.838;4.430;2023-12-29T14:19:58;4.78;;;0.90;;
23567;SDS011;11962;50.838;4.430;2023-12-29T14:22:29;7.18;;;1.42;;
23567;SDS011;11962;50.838;4.430;2023-12-29T14:25:04;6.25;;;1.33;;
23567;SDS011;11962;50.838;4.430;2023-12-29T14:27:31;8.02;;;1.23;;
23567;SDS011;11962;50.838;4.430;2023-12-29T14:29:56;7.30;;;1.27;;
23567;SDS011;11962;50.838;4.430;2023-12-29T14:32:23;3.20;;;1.20;;
23567;SDS011;11962;50.838;4.430;2023-12-29T14:34:49;7.32;;;1.80;;
23567;SDS011;11962;50.838;4.430;2023-12-29T14:37:21;5.90;;;1.45;;
23567;SDS011;11962;50.838;4.430;2023-12-29T14:39:48;6.03;;;1.60;;
23567;SDS011;11962;50.838;4.430;2023-12-29T14:42:17;6.35;;;1.70;;
23567;SDS011;11962;50.838;4.430;2023-12-29T14:44:46;7.07;;;1.88;;
23567;SDS011;11962;50.838;4.430;2023-12-29T14:47:13;8.18;;;1.77;;
23567;SDS011;11962;50.838;4.430;2023-12-29T14:49:40;9.55;;;2.35;;
23567;SDS011;11962;50.838;4.430;2023-12-29T14:52:06;5.95;;;1.83;;
23567;SDS011;11962;50.838;4.430;2023-12-29T14:54:31;7.75;;;1.85;;
23567;SDS011;11962;50.838;4.430;2023-12-29T14:56:57;5.03;;;1.55;;
23567;SDS011;11962;50.838;4.430;2023-12-29T14:59:23;4.90;;;1.13;;
23567;SDS011;11962;50.838;4.430;2023-12-29T15:01:49;2.53;;;1.05;;
23567;SDS011;11962;50.838;4.430;2023-12-29T15:04:15;6.32;;;1.00;;
23567;SDS011;11962;50.838;4.430;2023-12-29T15:06:41;7.63;;;1.75;;